sensor_id;sensor_type;location;lat;lon;timestamp;P1;durP1;ratioP1;P2;durP2;ratioP2
10463;SDS011;5279;42.048;24.638;2022-12-18T00:02:21;7.13;;;5.27;;
10463;SDS011;5279;42.048;24.638;2022-12-18T00:04:48;7.63;;;5.70;;
10463;SDS011;5279;42.048;24.638;2022-12-18T00:07:28;90.13;;;9.20;;
10463;SDS011;5279;42.048;24.638;2022-12-18T00:10:00;5.93;;;4.47;;
10463;SDS011;5279;42.048;24.638;2022-12-18T00:12:28;6.90;;;4.00;;
10463;SDS011;5279;42.048;24.638;2022-12-18T00:15:12;6.43;;;3.57;;
10463;SDS011;5279;42.048;24.638;2022-12-18T00:17:45;8.87;;;4.30;;
10463;SDS011;5279;42.048;24.638;2022-12-18T00:20:12;8.87;;;4.40;;
10463;SDS011;5279;42.048;24.638;2022-12-18T00:22:38;7.57;;;4.80;;
10463;SDS011;5279;42.048;24.638;2022-12-18T00:25:09;6.33;;;4.60;;
10463;SDS011;5279;42.048;24.638;2022-12-18T00:27:39;9.27;;;4.10;;
10463;SDS011;5279;42.048;24.638;2022-12-18T00:30:33;6.17;;;3.90;;
10463;SDS011;5279;42.048;24.638;2022-12-18T00:33:02;6.40;;;4.73;;
10463;SDS011;5279;42.048;24.638;2022-12-18T00:35:37;6.13;;;3.83;;
10463;SDS011;5279;42.048;24.638;2022-12-18T00:38:12;22.93;;;4.80;;
10463;SDS011;5279;42.048;24.638;2022-12-18T00:40:39;9.87;;;3.80;;
10463;SDS011;5279;42.048;24.638;2022-12-18T00:43:14;5.27;;;4.13;;
10463;SDS011;5279;42.048;24.638;2022-12-18T00:45:41;5.90;;;3.50;;
10463;SDS011;5279;42.048;24.638;2022-12-18T00:48:09;7.13;;;3.97;;
10463;SDS011;5279;42.048;24.638;2022-12-18T00:50:58;7.53;;;3.60;;
10463;SDS011;5279;42.048;24.638;2022-12-18T00:53:25;7.70;;;4.27;;
10463;SDS011;5279;42.048;24.638;2022-12-18T00:55:54;4.57;;;3.80;;
10463;SDS011;5279;42.048;24.638;2022-12-18T00:58:26;6.63;;;4.40;;
10463;SDS011;5279;42.048;24.638;2022-12-18T01:00:57;8.97;;;3.93;;
10463;SDS011;5279;42.048;24.638;2022-12-18T01:03:29;9.93;;;3.70;;
10463;SDS011;5279;42.048;24.638;2022-12-18T01:06:04;5.40;;;3.87;;
10463;SDS011;5279;42.048;24.638;2022-12-18T01:08:45;9.03;;;4.17;;
10463;SDS011;5279;42.048;24.638;2022-12-18T01:11:14;12.03;;;3.90;;
10463;SDS011;5279;42.048;24.638;2022-12-18T01:14:00;11.53;;;4.60;;
10463;SDS011;5279;42.048;24.638;2022-12-18T01:16:38;5.93;;;3.80;;
10463;SDS011;5279;42.048;24.638;2022-12-18T01:19:12;4.83;;;4.07;;
10463;SDS011;5279;42.048;24.638;2022-12-18T01:21:39;13.20;;;3.30;;
10463;SDS011;5279;42.048;24.638;2022-12-18T01:24:16;10.47;;;4.37;;
10463;SDS011;5279;42.048;24.638;2022-12-18T01:26:42;7.10;;;4.23;;
10463;SDS011;5279;42.048;24.638;2022-12-18T01:29:11;7.23;;;4.50;;
10463;SDS011;5279;42.048;24.638;2022-12-18T01:31:43;10.13;;;5.60;;
10463;SDS011;5279;42.048;24.638;2022-12-18T01:34:11;9.33;;;5.90;;
10463;SDS011;5279;42.048;24.638;2022-12-18T01:37:00;12.97;;;6.40;;
10463;SDS011;5279;42.048;24.638;2022-12-18T01:39:34;8.70;;;5.53;;
10463;SDS011;5279;42.048;24.638;2022-12-18T01:42:02;10.83;;;6.20;;
10463;SDS011;5279;42.048;24.638;2022-12-18T01:47:34;213.93;;;16.67;;
10463;SDS011;5279;42.048;24.638;2022-12-18T01:50:23;7.43;;;4.63;;
10463;SDS011;5279;42.048;24.638;2022-12-18T01:53:02;10.50;;;6.57;;
10463;SDS011;5279;42.048;24.638;2022-12-18T01:55:35;9.10;;;6.87;;
10463;SDS011;5279;42.048;24.638;2022-12-18T01:58:08;12.03;;;6.50;;
10463;SDS011;5279;42.048;24.638;2022-12-18T02:00:36;12.43;;;8.10;;
10463;SDS011;5279;42.048;24.638;2022-12-18T02:03:11;19.27;;;11.93;;
10463;SDS011;5279;42.048;24.638;2022-12-18T02:05:40;13.20;;;11.90;;
10463;SDS011;5279;42.048;24.638;2022-12-18T02:08:26;16.73;;;12.17;;
10463;SDS011;5279;42.048;24.638;2022-12-18T02:11:07;15.03;;;12.80;;
10463;SDS011;5279;42.048;24.638;2022-12-18T02:13:45;20.80;;;13.90;;
10463;SDS011;5279;42.048;24.638;2022-12-18T02:16:28;15.03;;;13.43;;
10463;SDS011;5279;42.048;24.638;2022-12-18T02:19:14;19.77;;;15.10;;
10463;SDS011;5279;42.048;24.638;2022-12-18T02:21:53;19.83;;;15.57;;
10463;SDS011;5279;42.048;24.638;2022-12-18T02:24:35;19.63;;;16.00;;
10463;SDS011;5279;42.048;24.638;2022-12-18T02:27:13;18.83;;;14.17;;
10463;SDS011;5279;42.048;24.638;2022-12-18T02:29:51;18.43;;;15.10;;
10463;SDS011;5279;42.048;24.638;2022-12-18T02:32:31;17.50;;;14.23;;
10463;SDS011;5279;42.048;24.638;2022-12-18T02:35:03;18.40;;;14.10;;
10463;SDS011;5279;42.048;24.638;2022-12-18T02:37:46;14.00;;;12.30;;
10463;SDS011;5279;42.048;24.638;2022-12-18T02:40:20;16.20;;;13.63;;
10463;SDS011;5279;42.048;24.638;2022-12-18T02:42:51;19.83;;;14.97;;
10463;SDS011;5279;42.048;24.638;2022-12-18T02:45:25;17.83;;;14.27;;
10463;SDS011;5279;42.048;24.638;2022-12-18T02:48:02;20.30;;;12.57;;
10463;SDS011;5279;42.048;24.638;2022-12-18T02:50:30;17.90;;;12.47;;
10463;SDS011;5279;42.048;24.638;2022-12-18T02:53:17;16.67;;;11.83;;
10463;SDS011;5279;42.048;24.638;2022-12-18T02:55:57;16.87;;;11.87;;
10463;SDS011;5279;42.048;24.638;2022-12-18T02:58:33;15.33;;;12.53;;
10463;SDS011;5279;42.048;24.638;2022-12-18T03:01:15;15.80;;;11.73;;
10463;SDS011;5279;42.048;24.638;2022-12-18T03:04:09;14.67;;;12.23;;
10463;SDS011;5279;42.048;24.638;2022-12-18T03:06:55;17.77;;;12.03;;
10463;SDS011;5279;42.048;24.638;2022-12-18T03:09:31;18.67;;;12.13;;
10463;SDS011;5279;42.048;24.638;2022-12-18T03:12:09;14.93;;;11.53;;
10463;SDS011;5279;42.048;24.638;2022-12-18T03:14:53;15.43;;;10.20;;
10463;SDS011;5279;42.048;24.638;2022-12-18T03:17:27;13.13;;;9.97;;
10463;SDS011;5279;42.048;24.638;2022-12-18T03:20:05;11.87;;;9.40;;
10463;SDS011;5279;42.048;24.638;2022-12-18T03:22:36;11.50;;;8.70;;
10463;SDS011;5279;42.048;24.638;2022-12-18T03:25:15;14.43;;;9.90;;
10463;SDS011;5279;42.048;24.638;2022-12-18T03:27:49;10.60;;;8.77;;
10463;SDS011;5279;42.048;24.638;2022-12-18T03:30:30;11.47;;;8.77;;
10463;SDS011;5279;42.048;24.638;2022-12-18T03:33:19;12.33;;;9.37;;
10463;SDS011;5279;42.048;24.638;2022-12-18T03:35:56;12.57;;;9.40;;
10463;SDS011;5279;42.048;24.638;2022-12-18T03:38:34;16.57;;;9.70;;
10463;SDS011;5279;42.048;24.638;2022-12-18T03:41:03;12.60;;;10.20;;
10463;SDS011;5279;42.048;24.638;2022-12-18T03:43:47;11.53;;;9.20;;
10463;SDS011;5279;42.048;24.638;2022-12-18T03:46:25;12.03;;;10.43;;
10463;SDS011;5279;42.048;24.638;2022-12-18T03:49:01;11.77;;;9.63;;
10463;SDS011;5279;42.048;24.638;2022-12-18T03:52:04;11.33;;;10.07;;
10463;SDS011;5279;42.048;24.638;2022-12-18T03:54:41;14.70;;;10.13;;
10463;SDS011;5279;42.048;24.638;2022-12-18T03:57:11;12.57;;;10.50;;
10463;SDS011;5279;42.048;24.638;2022-12-18T03:59:51;11.63;;;10.13;;
10463;SDS011;5279;42.048;24.638;2022-12-18T04:02:28;12.33;;;11.03;;
10463;SDS011;5279;42.048;24.638;2022-12-18T04:05:03;14.77;;;10.23;;
10463;SDS011;5279;42.048;24.638;2022-12-18T04:07:51;11.23;;;10.00;;
10463;SDS011;5279;42.048;24.638;2022-12-18T04:10:27;11.80;;;10.10;;
10463;SDS011;5279;42.048;24.638;2022-12-18T04:13:04;13.70;;;10.53;;
10463;SDS011;5279;42.048;24.638;2022-12-18T04:15:36;16.10;;;10.50;;
10463;SDS011;5279;42.048;24.638;2022-12-18T04:18:08;13.17;;;10.30;;
10463;SDS011;5279;42.048;24.638;2022-12-18T04:20:36;12.50;;;11.20;;
10463;SDS011;5279;42.048;24.638;2022-12-18T04:23:06;20.97;;;12.10;;
10463;SDS011;5279;42.048;24.638;2022-12-18T04:25:35;14.37;;;10.53;;
10463;SDS011;5279;42.048;24.638;2022-12-18T04:28:07;11.33;;;10.13;;
10463;SDS011;5279;42.048;24.638;2022-12-18T04:30:34;11.43;;;9.93;;
10463;SDS011;5279;42.048;24.638;2022-12-18T04:33:32;14.37;;;10.53;;
10463;SDS011;5279;42.048;24.638;2022-12-18T04:35:59;12.17;;;9.60;;
10463;SDS011;5279;42.048;24.638;2022-12-18T04:38:35;11.10;;;9.93;;
10463;SDS011;5279;42.048;24.638;2022-12-18T04:41:02;11.97;;;10.73;;
10463;SDS011;5279;42.048;24.638;2022-12-18T04:43:43;11.90;;;10.30;;
10463;SDS011;5279;42.048;24.638;2022-12-18T04:46:14;13.67;;;9.57;;
10463;SDS011;5279;42.048;24.638;2022-12-18T04:48:46;12.47;;;10.17;;
10463;SDS011;5279;42.048;24.638;2022-12-18T04:51:13;13.50;;;10.30;;
10463;SDS011;5279;42.048;24.638;2022-12-18T04:54:13;13.03;;;10.10;;
10463;SDS011;5279;42.048;24.638;2022-12-18T04:56:57;12.67;;;10.70;;
10463;SDS011;5279;42.048;24.638;2022-12-18T05:02:32;12.90;;;10.53;;
10463;SDS011;5279;42.048;24.638;2022-12-18T05:05:00;14.33;;;10.73;;
10463;SDS011;5279;42.048;24.638;2022-12-18T05:07:33;12.33;;;10.50;;
10463;SDS011;5279;42.048;24.638;2022-12-18T05:10:10;12.73;;;9.97;;
10463;SDS011;5279;42.048;24.638;2022-12-18T05:12:40;11.43;;;10.07;;
10463;SDS011;5279;42.048;24.638;2022-12-18T05:15:22;10.03;;;9.03;;
10463;SDS011;5279;42.048;24.638;2022-12-18T05:17:55;10.93;;;8.90;;
10463;SDS011;5279;42.048;24.638;2022-12-18T05:20:29;10.00;;;8.63;;
10463;SDS011;5279;42.048;24.638;2022-12-18T05:22:57;10.50;;;8.13;;
10463;SDS011;5279;42.048;24.638;2022-12-18T05:25:35;11.20;;;9.17;;
10463;SDS011;5279;42.048;24.638;2022-12-18T05:28:05;9.23;;;8.37;;
10463;SDS011;5279;42.048;24.638;2022-12-18T05:30:39;10.93;;;8.23;;
10463;SDS011;5279;42.048;24.638;2022-12-18T05:33:05;10.63;;;7.97;;
10463;SDS011;5279;42.048;24.638;2022-12-18T05:35:33;9.93;;;8.80;;
10463;SDS011;5279;42.048;24.638;2022-12-18T05:38:08;9.33;;;8.30;;
10463;SDS011;5279;42.048;24.638;2022-12-18T05:40:47;9.13;;;7.90;;
10463;SDS011;5279;42.048;24.638;2022-12-18T05:43:15;8.27;;;7.33;;
10463;SDS011;5279;42.048;24.638;2022-12-18T05:45:55;9.60;;;6.57;;
10463;SDS011;5279;42.048;24.638;2022-12-18T05:48:36;7.53;;;6.53;;
10463;SDS011;5279;42.048;24.638;2022-12-18T05:51:10;6.77;;;6.07;;
10463;SDS011;5279;42.048;24.638;2022-12-18T05:53:58;7.10;;;6.40;;
10463;SDS011;5279;42.048;24.638;2022-12-18T05:56:50;7.23;;;5.67;;
10463;SDS011;5279;42.048;24.638;2022-12-18T05:59:22;5.77;;;5.10;;
10463;SDS011;5279;42.048;24.638;2022-12-18T06:01:49;6.37;;;5.77;;
10463;SDS011;5279;42.048;24.638;2022-12-18T06:04:17;6.67;;;5.40;;
10463;SDS011;5279;42.048;24.638;2022-12-18T06:06:54;7.17;;;5.13;;
10463;SDS011;5279;42.048;24.638;2022-12-18T06:09:25;5.90;;;4.63;;
10463;SDS011;5279;42.048;24.638;2022-12-18T06:11:53;6.10;;;4.67;;
10463;SDS011;5279;42.048;24.638;2022-12-18T06:14:22;4.90;;;4.50;;
10463;SDS011;5279;42.048;24.638;2022-12-18T06:16:52;5.70;;;4.80;;
10463;SDS011;5279;42.048;24.638;2022-12-18T06:19:27;6.23;;;4.43;;
10463;SDS011;5279;42.048;24.638;2022-12-18T06:22:03;4.03;;;3.63;;
10463;SDS011;5279;42.048;24.638;2022-12-18T06:24:43;4.57;;;4.00;;
10463;SDS011;5279;42.048;24.638;2022-12-18T06:27:17;4.37;;;3.53;;
10463;SDS011;5279;42.048;24.638;2022-12-18T06:29:46;5.17;;;3.80;;
10463;SDS011;5279;42.048;24.638;2022-12-18T06:32:13;4.80;;;4.03;;
10463;SDS011;5279;42.048;24.638;2022-12-18T06:34:54;4.90;;;3.83;;
10463;SDS011;5279;42.048;24.638;2022-12-18T06:37:21;3.97;;;3.30;;
10463;SDS011;5279;42.048;24.638;2022-12-18T06:39:58;4.00;;;3.60;;
10463;SDS011;5279;42.048;24.638;2022-12-18T06:42:33;4.60;;;3.37;;
10463;SDS011;5279;42.048;24.638;2022-12-18T06:45:00;6.20;;;3.73;;
10463;SDS011;5279;42.048;24.638;2022-12-18T06:47:28;3.60;;;3.30;;
10463;SDS011;5279;42.048;24.638;2022-12-18T06:49:56;4.47;;;3.37;;
10463;SDS011;5279;42.048;24.638;2022-12-18T06:52:23;3.63;;;3.30;;
10463;SDS011;5279;42.048;24.638;2022-12-18T06:54:52;3.53;;;3.07;;
10463;SDS011;5279;42.048;24.638;2022-12-18T06:57:21;5.77;;;3.57;;
10463;SDS011;5279;42.048;24.638;2022-12-18T06:59:49;4.33;;;3.37;;
10463;SDS011;5279;42.048;24.638;2022-12-18T07:02:19;4.57;;;3.23;;
10463;SDS011;5279;42.048;24.638;2022-12-18T07:04:47;3.40;;;3.10;;
10463;SDS011;5279;42.048;24.638;2022-12-18T07:07:17;3.80;;;3.50;;
10463;SDS011;5279;42.048;24.638;2022-12-18T07:09:44;4.87;;;4.03;;
10463;SDS011;5279;42.048;24.638;2022-12-18T07:12:11;4.93;;;4.53;;
10463;SDS011;5279;42.048;24.638;2022-12-18T07:14:42;6.33;;;4.10;;
10463;SDS011;5279;42.048;24.638;2022-12-18T07:17:13;4.90;;;4.27;;
10463;SDS011;5279;42.048;24.638;2022-12-18T07:19:54;6.80;;;4.47;;
10463;SDS011;5279;42.048;24.638;2022-12-18T07:22:24;4.73;;;4.17;;
10463;SDS011;5279;42.048;24.638;2022-12-18T07:24:51;4.33;;;3.93;;
10463;SDS011;5279;42.048;24.638;2022-12-18T07:27:18;5.17;;;4.50;;
10463;SDS011;5279;42.048;24.638;2022-12-18T07:29:57;4.90;;;3.93;;
10463;SDS011;5279;42.048;24.638;2022-12-18T07:32:36;5.97;;;4.17;;
10463;SDS011;5279;42.048;24.638;2022-12-18T07:35:12;5.50;;;4.20;;
10463;SDS011;5279;42.048;24.638;2022-12-18T07:37:46;4.03;;;3.63;;
10463;SDS011;5279;42.048;24.638;2022-12-18T07:40:31;6.03;;;4.10;;
10463;SDS011;5279;42.048;24.638;2022-12-18T07:43:00;5.33;;;3.30;;
10463;SDS011;5279;42.048;24.638;2022-12-18T07:45:32;3.47;;;3.10;;
10463;SDS011;5279;42.048;24.638;2022-12-18T07:48:01;6.07;;;3.43;;
10463;SDS011;5279;42.048;24.638;2022-12-18T07:50:35;4.60;;;3.50;;
10463;SDS011;5279;42.048;24.638;2022-12-18T07:53:26;5.33;;;3.77;;
10463;SDS011;5279;42.048;24.638;2022-12-18T07:56:04;4.60;;;4.00;;
10463;SDS011;5279;42.048;24.638;2022-12-18T07:58:32;3.87;;;3.37;;
10463;SDS011;5279;42.048;24.638;2022-12-18T08:01:14;4.40;;;3.33;;
10463;SDS011;5279;42.048;24.638;2022-12-18T08:03:55;3.97;;;3.50;;
10463;SDS011;5279;42.048;24.638;2022-12-18T08:06:30;3.63;;;3.33;;
10463;SDS011;5279;42.048;24.638;2022-12-18T08:09:00;4.30;;;3.23;;
10463;SDS011;5279;42.048;24.638;2022-12-18T08:11:36;3.73;;;3.30;;
10463;SDS011;5279;42.048;24.638;2022-12-18T08:14:09;6.43;;;3.47;;
10463;SDS011;5279;42.048;24.638;2022-12-18T08:16:59;3.60;;;3.23;;
10463;SDS011;5279;42.048;24.638;2022-12-18T08:19:33;3.33;;;2.80;;
10463;SDS011;5279;42.048;24.638;2022-12-18T08:21:59;3.83;;;3.17;;
10463;SDS011;5279;42.048;24.638;2022-12-18T08:24:34;3.53;;;3.23;;
10463;SDS011;5279;42.048;24.638;2022-12-18T08:27:05;3.87;;;2.90;;
10463;SDS011;5279;42.048;24.638;2022-12-18T08:29:36;5.07;;;3.67;;
10463;SDS011;5279;42.048;24.638;2022-12-18T08:32:04;4.10;;;3.17;;
10463;SDS011;5279;42.048;24.638;2022-12-18T08:34:37;5.83;;;4.10;;
10463;SDS011;5279;42.048;24.638;2022-12-18T08:37:04;4.80;;;3.43;;
10463;SDS011;5279;42.048;24.638;2022-12-18T08:39:39;5.00;;;3.60;;
10463;SDS011;5279;42.048;24.638;2022-12-18T08:42:13;4.03;;;3.63;;
10463;SDS011;5279;42.048;24.638;2022-12-18T08:45:04;4.90;;;3.43;;
10463;SDS011;5279;42.048;24.638;2022-12-18T08:47:34;4.67;;;3.70;;
10463;SDS011;5279;42.048;24.638;2022-12-18T08:50:08;5.13;;;3.60;;
10463;SDS011;5279;42.048;24.638;2022-12-18T08:52:39;5.53;;;3.90;;
10463;SDS011;5279;42.048;24.638;2022-12-18T08:55:31;4.40;;;3.97;;
10463;SDS011;5279;42.048;24.638;2022-12-18T08:57:58;6.73;;;4.40;;
10463;SDS011;5279;42.048;24.638;2022-12-18T09:00:25;4.83;;;4.33;;
10463;SDS011;5279;42.048;24.638;2022-12-18T09:02:52;6.77;;;5.27;;
10463;SDS011;5279;42.048;24.638;2022-12-18T09:05:26;5.93;;;4.23;;
10463;SDS011;5279;42.048;24.638;2022-12-18T09:07:59;5.00;;;4.50;;
10463;SDS011;5279;42.048;24.638;2022-12-18T09:10:43;5.20;;;3.77;;
10463;SDS011;5279;42.048;24.638;2022-12-18T09:13:13;3.97;;;3.53;;
10463;SDS011;5279;42.048;24.638;2022-12-18T09:15:48;4.30;;;3.83;;
10463;SDS011;5279;42.048;24.638;2022-12-18T09:18:19;6.27;;;3.67;;
10463;SDS011;5279;42.048;24.638;2022-12-18T09:20:53;4.90;;;3.57;;
10463;SDS011;5279;42.048;24.638;2022-12-18T09:23:24;5.00;;;3.37;;
10463;SDS011;5279;42.048;24.638;2022-12-18T09:25:50;3.97;;;3.60;;
10463;SDS011;5279;42.048;24.638;2022-12-18T09:28:29;4.10;;;3.70;;
10463;SDS011;5279;42.048;24.638;2022-12-18T09:31:07;4.00;;;3.53;;
10463;SDS011;5279;42.048;24.638;2022-12-18T09:33:38;3.40;;;3.10;;
10463;SDS011;5279;42.048;24.638;2022-12-18T09:36:09;3.93;;;3.63;;
10463;SDS011;5279;42.048;24.638;2022-12-18T09:38:40;5.10;;;3.77;;
10463;SDS011;5279;42.048;24.638;2022-12-18T09:41:15;4.47;;;3.93;;
10463;SDS011;5279;42.048;24.638;2022-12-18T09:43:53;5.27;;;4.50;;
10463;SDS011;5279;42.048;24.638;2022-12-18T09:46:30;3.67;;;3.30;;
10463;SDS011;5279;42.048;24.638;2022-12-18T09:49:02;5.07;;;4.30;;
10463;SDS011;5279;42.048;24.638;2022-12-18T09:51:42;5.10;;;4.03;;
10463;SDS011;5279;42.048;24.638;2022-12-18T09:54:15;4.00;;;3.60;;
10463;SDS011;5279;42.048;24.638;2022-12-18T09:57:10;5.70;;;4.03;;
10463;SDS011;5279;42.048;24.638;2022-12-18T09:59:58;4.57;;;4.00;;
10463;SDS011;5279;42.048;24.638;2022-12-18T10:02:33;5.03;;;3.93;;
10463;SDS011;5279;42.048;24.638;2022-12-18T10:05:03;5.23;;;3.70;;
10463;SDS011;5279;42.048;24.638;2022-12-18T10:07:47;5.07;;;3.97;;
10463;SDS011;5279;42.048;24.638;2022-12-18T10:10:32;5.50;;;4.17;;
10463;SDS011;5279;42.048;24.638;2022-12-18T10:13:08;4.73;;;4.33;;
10463;SDS011;5279;42.048;24.638;2022-12-18T10:15:50;4.93;;;4.47;;
10463;SDS011;5279;42.048;24.638;2022-12-18T10:18:26;7.30;;;5.63;;
10463;SDS011;5279;42.048;24.638;2022-12-18T10:21:09;7.43;;;5.20;;
10463;SDS011;5279;42.048;24.638;2022-12-18T10:23:48;5.97;;;5.33;;
10463;SDS011;5279;42.048;24.638;2022-12-18T10:26:26;7.17;;;5.00;;
10463;SDS011;5279;42.048;24.638;2022-12-18T10:29:07;5.97;;;5.13;;
10463;SDS011;5279;42.048;24.638;2022-12-18T10:31:41;7.23;;;5.30;;
10463;SDS011;5279;42.048;24.638;2022-12-18T10:34:14;5.73;;;5.00;;
10463;SDS011;5279;42.048;24.638;2022-12-18T10:36:41;6.20;;;4.47;;
10463;SDS011;5279;42.048;24.638;2022-12-18T10:39:19;5.03;;;4.53;;
10463;SDS011;5279;42.048;24.638;2022-12-18T10:41:53;6.63;;;4.67;;
10463;SDS011;5279;42.048;24.638;2022-12-18T10:44:44;6.73;;;4.03;;
10463;SDS011;5279;42.048;24.638;2022-12-18T10:47:12;4.57;;;4.03;;
10463;SDS011;5279;42.048;24.638;2022-12-18T10:49:49;5.63;;;4.03;;
10463;SDS011;5279;42.048;24.638;2022-12-18T10:52:25;4.57;;;4.00;;
10463;SDS011;5279;42.048;24.638;2022-12-18T10:54:57;5.97;;;4.43;;
10463;SDS011;5279;42.048;24.638;2022-12-18T10:57:37;4.70;;;4.20;;
10463;SDS011;5279;42.048;24.638;2022-12-18T11:00:23;5.07;;;4.07;;
10463;SDS011;5279;42.048;24.638;2022-12-18T11:02:54;4.57;;;3.97;;
10463;SDS011;5279;42.048;24.638;2022-12-18T11:05:27;5.13;;;4.20;;
10463;SDS011;5279;42.048;24.638;2022-12-18T11:07:57;4.53;;;3.87;;
10463;SDS011;5279;42.048;24.638;2022-12-18T11:10:33;5.70;;;4.00;;
10463;SDS011;5279;42.048;24.638;2022-12-18T11:13:10;4.50;;;4.00;;
10463;SDS011;5279;42.048;24.638;2022-12-18T11:15:39;4.50;;;4.10;;
10463;SDS011;5279;42.048;24.638;2022-12-18T11:18:17;5.83;;;4.23;;
10463;SDS011;5279;42.048;24.638;2022-12-18T11:20:52;5.03;;;4.50;;
10463;SDS011;5279;42.048;24.638;2022-12-18T11:23:24;4.93;;;4.43;;
10463;SDS011;5279;42.048;24.638;2022-12-18T11:26:03;4.73;;;4.10;;
10463;SDS011;5279;42.048;24.638;2022-12-18T11:28:37;5.87;;;4.10;;
10463;SDS011;5279;42.048;24.638;2022-12-18T11:31:22;9.87;;;5.13;;
10463;SDS011;5279;42.048;24.638;2022-12-18T11:34:00;5.70;;;4.07;;
10463;SDS011;5279;42.048;24.638;2022-12-18T11:36:33;4.93;;;4.27;;
10463;SDS011;5279;42.048;24.638;2022-12-18T11:39:12;5.53;;;4.20;;
10463;SDS011;5279;42.048;24.638;2022-12-18T11:41:52;4.83;;;4.20;;
10463;SDS011;5279;42.048;24.638;2022-12-18T11:44:43;6.37;;;4.23;;
10463;SDS011;5279;42.048;24.638;2022-12-18T11:47:23;4.80;;;4.30;;
10463;SDS011;5279;42.048;24.638;2022-12-18T11:49:59;5.07;;;4.50;;
10463;SDS011;5279;42.048;24.638;2022-12-18T11:52:28;5.43;;;4.43;;
10463;SDS011;5279;42.048;24.638;2022-12-18T11:55:09;6.33;;;5.00;;
10463;SDS011;5279;42.048;24.638;2022-12-18T11:58:01;4.87;;;4.23;;
10463;SDS011;5279;42.048;24.638;2022-12-18T12:00:40;6.47;;;5.00;;
10463;SDS011;5279;42.048;24.638;2022-12-18T12:03:16;7.73;;;4.90;;
10463;SDS011;5279;42.048;24.638;2022-12-18T12:06:10;9.03;;;5.90;;
10463;SDS011;5279;42.048;24.638;2022-12-18T12:08:54;7.03;;;5.27;;
10463;SDS011;5279;42.048;24.638;2022-12-18T12:14:29;6.40;;;5.70;;
10463;SDS011;5279;42.048;24.638;2022-12-18T12:17:17;7.20;;;5.33;;
10463;SDS011;5279;42.048;24.638;2022-12-18T12:19:52;6.43;;;5.27;;
10463;SDS011;5279;42.048;24.638;2022-12-18T12:22:32;6.80;;;5.90;;
10463;SDS011;5279;42.048;24.638;2022-12-18T12:25:26;6.40;;;5.70;;
10463;SDS011;5279;42.048;24.638;2022-12-18T12:28:09;6.40;;;5.07;;
10463;SDS011;5279;42.048;24.638;2022-12-18T12:30:52;6.23;;;5.20;;
10463;SDS011;5279;42.048;24.638;2022-12-18T12:33:33;6.07;;;5.47;;
10463;SDS011;5279;42.048;24.638;2022-12-18T12:36:13;6.50;;;5.37;;
10463;SDS011;5279;42.048;24.638;2022-12-18T12:38:53;5.27;;;4.73;;
10463;SDS011;5279;42.048;24.638;2022-12-18T12:41:27;5.63;;;4.57;;
10463;SDS011;5279;42.048;24.638;2022-12-18T12:44:18;5.53;;;4.97;;
10463;SDS011;5279;42.048;24.638;2022-12-18T12:47:20;5.73;;;4.97;;
10463;SDS011;5279;42.048;24.638;2022-12-18T12:49:56;5.10;;;4.60;;
10463;SDS011;5279;42.048;24.638;2022-12-18T12:52:32;6.83;;;4.73;;
10463;SDS011;5279;42.048;24.638;2022-12-18T12:55:04;6.57;;;5.53;;
10463;SDS011;5279;42.048;24.638;2022-12-18T12:57:45;6.13;;;5.03;;
10463;SDS011;5279;42.048;24.638;2022-12-18T13:00:21;6.10;;;5.50;;
10463;SDS011;5279;42.048;24.638;2022-12-18T13:02:56;6.60;;;5.37;;
10463;SDS011;5279;42.048;24.638;2022-12-18T13:05:31;8.43;;;5.50;;
10463;SDS011;5279;42.048;24.638;2022-12-18T13:08:11;6.20;;;5.57;;
10463;SDS011;5279;42.048;24.638;2022-12-18T13:10:52;7.70;;;6.07;;
10463;SDS011;5279;42.048;24.638;2022-12-18T13:13:49;8.03;;;5.60;;
10463;SDS011;5279;42.048;24.638;2022-12-18T13:16:19;6.97;;;6.17;;
10463;SDS011;5279;42.048;24.638;2022-12-18T13:19:25;8.40;;;6.37;;
10463;SDS011;5279;42.048;24.638;2022-12-18T13:21:59;6.37;;;5.37;;
10463;SDS011;5279;42.048;24.638;2022-12-18T13:24:26;8.67;;;5.67;;
10463;SDS011;5279;42.048;24.638;2022-12-18T13:27:00;5.83;;;5.10;;
10463;SDS011;5279;42.048;24.638;2022-12-18T13:29:48;5.53;;;4.90;;
10463;SDS011;5279;42.048;24.638;2022-12-18T13:32:23;5.67;;;5.07;;
10463;SDS011;5279;42.048;24.638;2022-12-18T13:37:55;5.70;;;4.70;;
10463;SDS011;5279;42.048;24.638;2022-12-18T13:43:30;6.20;;;4.63;;
10463;SDS011;5279;42.048;24.638;2022-12-18T13:49:01;5.97;;;5.03;;
10463;SDS011;5279;42.048;24.638;2022-12-18T13:51:52;7.43;;;4.93;;
10463;SDS011;5279;42.048;24.638;2022-12-18T13:54:32;6.07;;;4.80;;
10463;SDS011;5279;42.048;24.638;2022-12-18T13:57:24;6.33;;;5.50;;
10463;SDS011;5279;42.048;24.638;2022-12-18T14:00:14;8.97;;;5.50;;
10463;SDS011;5279;42.048;24.638;2022-12-18T14:02:54;6.80;;;5.33;;
10463;SDS011;5279;42.048;24.638;2022-12-18T14:05:30;6.33;;;5.63;;
10463;SDS011;5279;42.048;24.638;2022-12-18T14:08:14;6.93;;;6.17;;
10463;SDS011;5279;42.048;24.638;2022-12-18T14:10:50;7.90;;;5.93;;
10463;SDS011;5279;42.048;24.638;2022-12-18T14:13:28;7.57;;;5.40;;
10463;SDS011;5279;42.048;24.638;2022-12-18T14:16:00;8.23;;;6.17;;
10463;SDS011;5279;42.048;24.638;2022-12-18T14:18:29;8.53;;;6.23;;
10463;SDS011;5279;42.048;24.638;2022-12-18T14:21:18;7.50;;;5.83;;
10463;SDS011;5279;42.048;24.638;2022-12-18T14:24:02;8.10;;;6.27;;
10463;SDS011;5279;42.048;24.638;2022-12-18T14:26:50;9.17;;;6.47;;
10463;SDS011;5279;42.048;24.638;2022-12-18T14:29:18;8.67;;;6.43;;
10463;SDS011;5279;42.048;24.638;2022-12-18T14:32:04;7.03;;;5.57;;
10463;SDS011;5279;42.048;24.638;2022-12-18T14:34:41;6.60;;;5.73;;
10463;SDS011;5279;42.048;24.638;2022-12-18T14:37:20;8.90;;;6.43;;
10463;SDS011;5279;42.048;24.638;2022-12-18T14:39:53;8.03;;;6.50;;
10463;SDS011;5279;42.048;24.638;2022-12-18T14:42:34;8.17;;;6.70;;
10463;SDS011;5279;42.048;24.638;2022-12-18T14:45:31;7.67;;;5.87;;
10463;SDS011;5279;42.048;24.638;2022-12-18T14:48:05;8.57;;;6.33;;
10463;SDS011;5279;42.048;24.638;2022-12-18T14:50:33;6.90;;;6.20;;
10463;SDS011;5279;42.048;24.638;2022-12-18T14:53:28;9.63;;;6.90;;
10463;SDS011;5279;42.048;24.638;2022-12-18T14:56:17;8.07;;;6.67;;
10463;SDS011;5279;42.048;24.638;2022-12-18T14:58:49;9.03;;;7.03;;
10463;SDS011;5279;42.048;24.638;2022-12-18T15:01:27;7.30;;;6.37;;
10463;SDS011;5279;42.048;24.638;2022-12-18T15:04:04;8.03;;;6.47;;
10463;SDS011;5279;42.048;24.638;2022-12-18T15:06:52;6.83;;;6.13;;
10463;SDS011;5279;42.048;24.638;2022-12-18T15:09:32;9.33;;;6.67;;
10463;SDS011;5279;42.048;24.638;2022-12-18T15:11:59;7.53;;;6.33;;
10463;SDS011;5279;42.048;24.638;2022-12-18T15:14:38;7.33;;;6.33;;
10463;SDS011;5279;42.048;24.638;2022-12-18T15:17:16;8.40;;;5.90;;
10463;SDS011;5279;42.048;24.638;2022-12-18T15:19:48;9.00;;;6.80;;
10463;SDS011;5279;42.048;24.638;2022-12-18T15:22:24;7.53;;;6.17;;
10463;SDS011;5279;42.048;24.638;2022-12-18T15:24:53;9.33;;;6.33;;
10463;SDS011;5279;42.048;24.638;2022-12-18T15:27:37;7.63;;;6.30;;
10463;SDS011;5279;42.048;24.638;2022-12-18T15:30:19;7.77;;;6.77;;
10463;SDS011;5279;42.048;24.638;2022-12-18T15:35:56;9.97;;;6.33;;
10463;SDS011;5279;42.048;24.638;2022-12-18T15:38:28;8.00;;;6.50;;
10463;SDS011;5279;42.048;24.638;2022-12-18T15:40:55;8.33;;;6.23;;
10463;SDS011;5279;42.048;24.638;2022-12-18T15:43:23;8.40;;;7.00;;
10463;SDS011;5279;42.048;24.638;2022-12-18T15:46:06;7.90;;;6.67;;
10463;SDS011;5279;42.048;24.638;2022-12-18T15:48:40;7.60;;;6.77;;
10463;SDS011;5279;42.048;24.638;2022-12-18T15:51:10;8.23;;;6.37;;
10463;SDS011;5279;42.048;24.638;2022-12-18T15:53:44;7.90;;;6.73;;
10463;SDS011;5279;42.048;24.638;2022-12-18T15:56:28;10.83;;;8.60;;
10463;SDS011;5279;42.048;24.638;2022-12-18T15:59:17;9.87;;;8.23;;